createdAt,value
2022-10-17T00:00:12.480Z,2.90
2022-10-17T00:05:13.919Z,3.50
2022-10-17T00:10:15.265Z,3.00
2022-10-17T00:15:17.641Z,3.17
2022-10-17T00:20:19.151Z,3.40
2022-10-17T00:25:20.573Z,2.97
2022-10-17T00:30:21.923Z,3.20
2022-10-17T00:35:23.263Z,3.30
2022-10-17T00:40:25.193Z,3.60
2022-10-17T00:45:27.973Z,3.80
2022-10-17T00:50:29.613Z,4.18
2022-10-17T00:55:32.106Z,3.80
2022-10-17T01:00:33.491Z,3.83
2022-10-17T01:05:34.907Z,4.18
2022-10-17T01:10:48.271Z,4.53
2022-10-17T01:16:01.332Z,3.75
2022-10-17T01:21:18.115Z,3.65
2022-10-17T01:26:26.443Z,4.18
2022-10-17T01:31:35.456Z,4.03
2022-10-17T01:36:44.021Z,4.30
2022-10-17T01:41:51.357Z,4.55
2022-10-17T01:52:00.748Z,5.13
2022-10-17T01:57:04.353Z,5.78
2022-10-17T02:02:07.697Z,4.85
2022-10-17T02:07:09.683Z,4.95
2022-10-17T02:12:20.081Z,5.15
2022-10-17T02:17:21.449Z,5.10
2022-10-17T02:22:27.553Z,6.22
2022-10-17T02:27:33.974Z,5.57
2022-10-17T02:32:40.031Z,5.60
2022-10-17T02:37:43.222Z,6.53
2022-10-17T02:42:45.416Z,6.68
2022-10-17T02:47:59.079Z,6.50
2022-10-17T02:53:04.603Z,6.93
2022-10-17T02:58:09.064Z,6.22
2022-10-17T03:03:21.597Z,6.32
2022-10-17T03:08:23.423Z,6.95
2022-10-17T03:13:24.778Z,7.03
2022-10-17T03:18:27.763Z,6.90
2022-10-17T03:23:31.230Z,6.68
2022-10-17T03:28:32.642Z,5.75
2022-10-17T03:33:34.133Z,6.60
2022-10-17T03:38:35.645Z,6.18
2022-10-17T03:43:38.715Z,6.72
2022-10-17T03:48:40.053Z,6.97
2022-10-17T03:53:41.487Z,7.05
2022-10-17T03:58:42.987Z,6.10
2022-10-17T04:03:44.623Z,6.40
2022-10-17T04:08:46.070Z,6.47
2022-10-17T04:13:47.433Z,7.15
2022-10-17T04:18:52.535Z,7.18
2022-10-17T04:23:57.817Z,7.13
2022-10-17T04:28:59.210Z,6.82
2022-10-17T04:34:00.551Z,6.93
2022-10-17T04:39:05.529Z,7.05
2022-10-17T04:44:06.974Z,7.35
2022-10-17T04:49:08.535Z,7.50
2022-10-17T04:54:10.070Z,7.80
2022-10-17T04:59:11.414Z,7.75
2022-10-17T05:04:13.052Z,7.20
2022-10-17T05:09:14.399Z,8.02
2022-10-17T05:14:15.780Z,7.00
2022-10-17T05:19:18.453Z,7.63
2022-10-17T05:24:19.790Z,7.50
2022-10-17T05:29:21.278Z,6.82
2022-10-17T05:34:22.609Z,6.85
2022-10-17T05:39:23.935Z,6.97
2022-10-17T05:44:25.497Z,6.75
2022-10-17T05:49:33.277Z,6.57
2022-10-17T05:54:41.459Z,6.68
2022-10-17T05:59:43.074Z,7.00
2022-10-17T06:04:46.098Z,6.00
2022-10-17T06:09:47.550Z,5.68
2022-10-17T06:14:48.915Z,6.25
2022-10-17T06:19:50.285Z,5.95
2022-10-17T06:24:53.995Z,5.55
2022-10-17T06:29:55.529Z,6.18
2022-10-17T06:34:56.897Z,5.85
2022-10-17T06:39:58.337Z,5.45
2022-10-17T06:44:59.800Z,6.22
2022-10-17T06:50:01.140Z,6.03
2022-10-17T07:00:06.077Z,6.32
2022-10-17T07:05:07.555Z,5.90
2022-10-17T07:10:09.342Z,6.68
2022-10-17T07:15:10.968Z,5.82
2022-10-17T07:20:12.372Z,5.90
2022-10-17T07:25:14.362Z,5.80
2022-10-17T07:30:15.908Z,6.90
2022-10-17T07:35:17.304Z,5.88
2022-10-17T07:40:18.947Z,5.72
2022-10-17T07:45:20.452Z,6.20
2022-10-17T07:50:21.816Z,5.90
2022-10-17T07:55:23.171Z,6.18
2022-10-17T08:00:24.559Z,5.93
2022-10-17T08:05:26.112Z,6.10
2022-10-17T08:10:29.299Z,5.78
2022-10-17T08:15:32.125Z,6.75
2022-10-17T08:20:33.628Z,5.88
2022-10-17T08:25:35.049Z,6.50
2022-10-17T08:30:36.435Z,6.38
2022-10-17T08:35:38.790Z,6.57
2022-10-17T08:40:42.829Z,6.53
2022-10-17T08:45:55.910Z,6.22
2022-10-17T08:50:57.579Z,6.55
2022-10-17T08:56:01.149Z,7.13
2022-10-17T09:01:13.731Z,6.88
2022-10-17T09:06:19.028Z,6.50
2022-10-17T09:11:35.572Z,6.82
2022-10-17T09:16:48.606Z,6.55
2022-10-17T09:21:53.065Z,6.47
2022-10-17T09:26:54.893Z,6.47
2022-10-17T09:32:13.837Z,6.28
2022-10-17T09:37:15.930Z,6.85
2022-10-17T09:42:21.355Z,6.40
2022-10-17T09:47:31.562Z,6.43
2022-10-17T09:52:39.947Z,6.60
2022-10-17T09:57:52.501Z,6.43
2022-10-17T10:03:09.186Z,6.00
2022-10-17T10:08:14.865Z,6.57
2022-10-17T10:13:17.736Z,6.00
2022-10-17T10:18:25.287Z,6.13
2022-10-17T10:23:26.772Z,5.97
2022-10-17T10:28:36.476Z,6.30
2022-10-17T10:33:45.923Z,5.13
2022-10-17T10:38:53.566Z,5.00
2022-10-17T10:43:55.459Z,5.15
2022-10-17T10:49:01.501Z,5.13
2022-10-17T10:54:18.017Z,4.90
2022-10-17T10:59:23.209Z,3.53
2022-10-17T11:04:27.440Z,3.35
2022-10-17T11:09:41.477Z,2.85
2022-10-17T11:14:54.077Z,3.13
2022-10-17T11:20:24.863Z,2.80
2022-10-17T11:25:33.927Z,2.58
2022-10-17T11:35:51.695Z,2.42
2022-10-17T11:40:55.324Z,2.50
2022-10-17T11:46:15.393Z,2.15
2022-10-17T11:56:44.272Z,2.50
2022-10-17T12:02:11.794Z,3.45
2022-10-17T12:07:39.583Z,2.50
2022-10-17T12:12:41.032Z,2.92
2022-10-17T12:17:46.703Z,2.50
2022-10-17T12:22:48.595Z,3.20
2022-10-17T12:27:50.590Z,3.00
2022-10-17T12:33:11.423Z,2.80
2022-10-17T12:38:18.885Z,2.58
2022-10-17T12:43:29.526Z,2.47
2022-10-17T12:48:33.801Z,2.70
2022-10-17T12:53:35.194Z,2.70
2022-10-17T12:58:37.261Z,3.03
2022-10-17T13:03:43.224Z,2.85
2022-10-17T13:08:47.375Z,2.97
2022-10-17T13:13:53.324Z,2.35
2022-10-17T13:18:55.016Z,2.30
2022-10-17T13:23:56.599Z,2.20
2022-10-17T13:29:05.340Z,2.33
2022-10-17T13:34:15.362Z,2.27
2022-10-17T13:39:23.196Z,2.20
2022-10-17T13:44:32.170Z,2.60
2022-10-17T13:49:35.252Z,1.90
2022-10-17T13:54:38.239Z,2.30
2022-10-17T13:59:41.126Z,2.47
2022-10-17T14:05:15.011Z,2.45
2022-10-17T14:10:06.406Z,2.42
2022-10-17T14:15:12.849Z,2.30
2022-10-17T14:25:41.064Z,2.30
2022-10-17T14:30:57.713Z,2.22
2022-10-17T14:36:01.077Z,2.75
2022-10-17T14:41:41.288Z,2.78
2022-10-17T14:46:35.919Z,2.58
2022-10-17T14:51:50.334Z,2.70
2022-10-17T14:56:58.870Z,2.47
2022-10-17T15:02:00.248Z,2.72
2022-10-17T15:07:01.741Z,2.90
2022-10-17T15:12:04.299Z,2.80
2022-10-17T15:17:26.050Z,2.58
2022-10-17T15:22:27.721Z,2.50
2022-10-17T15:27:31.167Z,2.33
2022-10-17T15:32:32.970Z,2.40
2022-10-17T15:37:34.438Z,3.05
2022-10-17T15:42:35.888Z,2.97
2022-10-17T15:47:37.869Z,2.70
2022-10-17T15:52:39.311Z,2.35
2022-10-17T15:57:42.886Z,2.85
2022-10-17T16:02:44.605Z,2.50
2022-10-17T16:07:46.888Z,2.25
2022-10-17T16:12:50.489Z,2.22
2022-10-17T16:17:53.390Z,2.65
2022-10-17T16:22:59.936Z,2.33
2022-10-17T16:28:01.578Z,2.30
2022-10-17T16:33:03.048Z,2.60
2022-10-17T16:38:05.272Z,2.47
2022-10-17T16:43:07.246Z,2.95
2022-10-17T16:48:09.081Z,2.88
2022-10-17T16:53:10.550Z,2.83
2022-10-17T16:58:12.029Z,2.40
2022-10-17T17:03:13.443Z,2.80
2022-10-17T17:08:14.856Z,3.63
2022-10-17T17:13:16.620Z,2.67
2022-10-17T17:18:18.032Z,2.55
2022-10-17T17:23:19.442Z,2.92
2022-10-17T17:28:20.898Z,3.28
2022-10-17T17:33:23.239Z,3.20
2022-10-17T17:38:24.778Z,3.30
2022-10-17T17:43:26.252Z,3.40
2022-10-17T17:48:27.666Z,2.70
2022-10-17T17:53:29.065Z,3.30
2022-10-17T17:58:30.487Z,2.90
2022-10-17T18:03:31.889Z,3.40
2022-10-17T18:08:33.647Z,3.20
2022-10-17T18:13:35.052Z,3.30
2022-10-17T18:18:36.535Z,3.40
2022-10-17T18:23:38.934Z,3.17
2022-10-17T18:33:44.724Z,3.63
2022-10-17T18:38:46.219Z,3.30
2022-10-17T18:43:48.213Z,3.15
2022-10-17T18:48:50.334Z,3.72
2022-10-17T18:53:52.803Z,3.65
2022-10-17T18:58:54.850Z,4.13
2022-10-17T19:03:57.190Z,3.92
2022-10-17T19:09:00.316Z,3.00
2022-10-17T19:14:02.484Z,3.30
2022-10-17T19:19:08.390Z,3.70
2022-10-17T19:24:17.414Z,3.60
2022-10-17T19:29:19.901Z,3.60
2022-10-17T19:34:21.346Z,3.13
2022-10-17T19:39:23.916Z,3.50
2022-10-17T19:44:25.362Z,3.00
2022-10-17T19:49:26.819Z,3.72
2022-10-17T19:54:28.257Z,3.50
2022-10-17T19:59:29.693Z,3.35
2022-10-17T20:04:31.176Z,3.67
2022-10-17T20:09:32.545Z,3.63
2022-10-17T20:14:38.629Z,3.28
2022-10-17T20:19:42.298Z,3.15
2022-10-17T20:24:43.805Z,3.65
2022-10-17T20:29:45.302Z,3.40
2022-10-17T20:34:46.718Z,3.58
2022-10-17T20:39:55.801Z,4.13
2022-10-17T20:45:06.705Z,3.90
2022-10-17T20:50:08.286Z,4.70
2022-10-17T20:55:09.675Z,3.90
2022-10-17T21:00:11.360Z,4.10
2022-10-17T21:05:12.805Z,3.50
2022-10-17T21:10:34.335Z,4.97
2022-10-17T21:15:35.679Z,3.53
2022-10-17T21:20:37.748Z,3.90
2022-10-17T21:25:40.774Z,3.53
2022-10-17T21:30:42.439Z,3.25
2022-10-17T21:35:43.901Z,3.63
2022-10-17T21:40:46.764Z,3.72
2022-10-17T21:45:48.164Z,3.38
2022-10-17T21:50:55.636Z,3.42
2022-10-17T21:56:04.935Z,3.17
2022-10-17T22:01:06.352Z,3.50
2022-10-17T22:06:37.561Z,3.47
2022-10-17T22:11:31.140Z,3.45
2022-10-17T22:16:32.671Z,3.53
2022-10-17T22:21:35.137Z,3.63
2022-10-17T22:26:37.670Z,3.65
2022-10-17T22:31:39.733Z,3.47
2022-10-17T22:36:41.275Z,3.83
2022-10-17T22:41:42.685Z,3.97
2022-10-17T22:46:44.076Z,3.97
2022-10-17T22:51:45.482Z,4.20
2022-10-17T22:56:47.202Z,3.20
2022-10-17T23:01:48.612Z,3.90
2022-10-17T23:06:50.023Z,3.88
2022-10-17T23:11:51.441Z,3.65
2022-10-17T23:16:52.810Z,3.63
2022-10-17T23:21:54.216Z,4.00
2022-10-17T23:26:55.670Z,3.53
2022-10-17T23:31:57.173Z,4.00
2022-10-17T23:36:58.716Z,3.03
2022-10-17T23:42:00.135Z,3.85
2022-10-17T23:47:02.391Z,4.00
2022-10-17T23:52:03.886Z,3.97
2022-10-17T23:57:05.376Z,4.30
